createdAt,value
2017-11-10T00:01:20.262Z,7.40
2017-11-10T00:07:26.656Z,7.36
2017-11-10T00:13:30.361Z,7.23
2017-11-10T00:19:35.030Z,7.12
2017-11-10T00:25:41.340Z,7.04
2017-11-10T00:44:46.155Z,6.52
2017-11-10T00:50:52.117Z,6.52
2017-11-10T00:56:57.602Z,6.53
2017-11-10T01:03:03.265Z,6.52
2017-11-10T01:09:07.498Z,6.57
2017-11-10T01:15:11.322Z,6.51
2017-11-10T01:21:14.812Z,6.51
2017-11-10T01:27:18.289Z,6.48
2017-11-10T01:33:22.089Z,6.58
2017-11-10T01:39:25.570Z,6.61
2017-11-10T01:45:29.045Z,6.57
2017-11-10T01:51:33.139Z,6.62
2017-11-10T01:57:36.600Z,6.67
2017-11-10T02:03:40.060Z,6.69
2017-11-10T02:09:44.299Z,6.75
2017-11-10T02:15:47.757Z,6.66
2017-11-10T02:21:51.966Z,6.67
2017-11-10T02:27:55.470Z,6.77
2017-11-10T02:33:58.932Z,6.75
2017-11-10T02:40:02.396Z,6.71
2017-11-10T02:46:06.622Z,6.75
2017-11-10T02:52:10.092Z,6.80
2017-11-10T02:58:14.318Z,6.83
2017-11-10T03:04:17.830Z,6.84
2017-11-10T03:10:21.269Z,6.88
2017-11-10T03:16:24.722Z,6.88
2017-11-10T03:22:28.182Z,6.84
2017-11-10T03:28:32.521Z,6.79
2017-11-10T03:34:36.756Z,6.77
2017-11-10T03:40:40.238Z,6.71
2017-11-10T03:46:43.697Z,6.71
2017-11-10T03:52:47.961Z,6.66
2017-11-10T03:58:51.430Z,6.68
2017-11-10T04:04:55.015Z,6.65
2017-11-10T04:10:58.555Z,6.53
2017-11-10T04:17:02.782Z,6.55
2017-11-10T04:23:06.250Z,6.48
2017-11-10T04:29:09.710Z,6.50
2017-11-10T04:35:13.518Z,6.49
2017-11-10T04:41:17.747Z,6.50
2017-11-10T04:47:21.231Z,6.48
2017-11-10T04:53:24.683Z,6.54
2017-11-10T04:59:28.905Z,6.57
2017-11-10T05:05:32.374Z,6.52
2017-11-10T05:11:37.034Z,6.43
2017-11-10T05:17:40.504Z,6.40
2017-11-10T05:23:44.321Z,6.46
2017-11-10T05:29:47.808Z,6.43
2017-11-10T05:35:51.256Z,6.42
2017-11-10T05:41:54.758Z,6.38
2017-11-10T05:47:58.219Z,6.48
2017-11-10T05:54:02.345Z,6.47
2017-11-10T06:00:05.786Z,6.42
2017-11-10T06:06:09.282Z,6.34
2017-11-10T06:12:12.728Z,6.39
2017-11-10T06:18:17.298Z,6.43
2017-11-10T06:24:20.892Z,6.47
2017-11-10T06:30:24.669Z,6.47
2017-11-10T06:36:28.125Z,6.46
2017-11-10T06:42:31.606Z,6.52
2017-11-10T06:48:35.451Z,6.61
2017-11-10T06:54:38.904Z,6.54
2017-11-10T07:00:42.367Z,6.68
2017-11-10T07:06:45.831Z,6.67
2017-11-10T07:12:50.072Z,6.74
2017-11-10T07:18:53.540Z,6.68
2017-11-10T07:24:57.030Z,6.73
2017-11-10T07:31:01.152Z,6.78
2017-11-10T07:37:04.615Z,6.78
2017-11-10T07:43:08.097Z,6.76
2017-11-10T07:49:11.568Z,6.84
2017-11-10T07:55:15.044Z,6.91
2017-11-10T08:01:18.491Z,6.93
2017-11-10T08:07:21.960Z,7.01
2017-11-10T08:13:25.421Z,7.04
2017-11-10T08:19:28.903Z,7.08
2017-11-10T08:25:32.391Z,7.02
2017-11-10T08:31:35.882Z,7.12
2017-11-10T08:37:39.324Z,7.08
2017-11-10T08:43:43.579Z,7.15
2017-11-10T08:49:47.043Z,7.23
2017-11-10T08:55:50.520Z,7.25
2017-11-10T09:01:53.955Z,7.35
2017-11-10T09:07:57.529Z,7.40
2017-11-10T09:14:01.020Z,7.59
2017-11-10T09:20:04.479Z,7.62
2017-11-10T09:26:08.287Z,7.44
2017-11-10T09:32:26.616Z,7.41
2017-11-10T09:38:35.469Z,7.40
2017-11-10T09:51:24.891Z,7.21
2017-11-10T09:57:35.231Z,7.16
2017-11-10T10:10:33.968Z,7.25
2017-11-10T10:23:31.130Z,7.56
2017-11-10T10:29:34.631Z,7.62
2017-11-10T10:35:38.100Z,7.53
2017-11-10T10:41:41.590Z,7.52
2017-11-10T10:47:45.081Z,7.45
2017-11-10T10:53:48.574Z,7.35
2017-11-10T10:59:52.057Z,7.29
2017-11-10T11:05:55.555Z,7.23
2017-11-10T11:11:59.078Z,7.24
2017-11-10T11:18:04.926Z,7.25
2017-11-10T11:24:08.422Z,7.23
2017-11-10T11:30:11.913Z,7.26
2017-11-10T11:36:15.441Z,7.32
2017-11-10T11:42:18.938Z,7.31
2017-11-10T11:48:22.425Z,7.28
2017-11-10T11:54:25.896Z,7.27
2017-11-10T12:00:30.289Z,7.30
2017-11-10T12:06:33.779Z,7.28
2017-11-10T12:12:37.267Z,7.29
2017-11-10T12:18:40.735Z,7.29
2017-11-10T12:24:44.203Z,7.24
2017-11-10T12:30:47.710Z,7.27
2017-11-10T12:36:51.199Z,7.33
2017-11-10T12:42:55.087Z,7.32
2017-11-10T12:48:58.580Z,7.42
2017-11-10T12:55:02.092Z,7.34
2017-11-10T13:01:06.330Z,7.28
2017-11-10T13:07:09.836Z,7.24
2017-11-10T13:13:13.338Z,7.30
2017-11-10T13:19:16.825Z,7.52
2017-11-10T13:25:20.312Z,7.57
2017-11-10T13:31:23.812Z,7.58
2017-11-10T13:37:28.101Z,7.58
2017-11-10T13:43:31.885Z,7.54
2017-11-10T13:49:35.383Z,7.49
2017-11-10T13:55:38.896Z,7.50
2017-11-10T14:01:42.479Z,7.49
2017-11-10T14:07:46.719Z,7.50
2017-11-10T14:13:50.220Z,7.46
2017-11-10T14:19:53.864Z,7.50
2017-11-10T14:25:57.362Z,7.48
2017-11-10T14:32:00.872Z,7.50
2017-11-10T14:38:04.369Z,7.45
2017-11-10T14:44:07.862Z,7.49
2017-11-10T14:50:11.370Z,7.55
2017-11-10T14:56:15.629Z,7.56
2017-11-10T15:02:19.120Z,7.57
2017-11-10T15:08:22.622Z,7.53
2017-11-10T15:14:26.875Z,7.54
2017-11-10T15:20:30.383Z,7.63
2017-11-10T15:26:33.865Z,7.67
2017-11-10T15:32:37.504Z,7.77
2017-11-10T15:38:40.997Z,7.82
2017-11-10T15:44:44.847Z,7.92
2017-11-10T15:50:48.359Z,8.04
2017-11-10T15:56:51.854Z,7.69
2017-11-10T16:02:55.331Z,7.72
2017-11-10T16:08:58.837Z,7.45
2017-11-10T16:15:02.339Z,7.15
2017-11-10T16:21:06.533Z,6.79
2017-11-10T16:27:10.035Z,6.64
2017-11-10T16:33:13.522Z,6.51
2017-11-10T16:39:17.014Z,6.51
2017-11-10T16:45:20.549Z,6.47
2017-11-10T16:51:24.026Z,6.40
2017-11-10T16:57:27.518Z,6.28
2017-11-10T17:03:31.023Z,6.20
2017-11-10T17:09:34.505Z,6.28
2017-11-10T17:15:38.346Z,6.16
2017-11-10T17:21:41.869Z,6.12
2017-11-10T17:27:45.367Z,6.19
2017-11-10T17:33:48.866Z,6.22
2017-11-10T17:39:52.370Z,6.30
2017-11-10T17:45:55.877Z,6.29
2017-11-10T17:52:00.168Z,6.31
2017-11-10T17:58:03.962Z,6.33
2017-11-10T18:04:07.421Z,6.38
2017-11-10T18:10:10.909Z,6.30
2017-11-10T18:16:14.379Z,6.37
2017-11-10T18:22:17.901Z,6.53
2017-11-10T18:28:22.162Z,6.49
2017-11-10T18:34:25.660Z,6.40
2017-11-10T18:40:29.153Z,6.30
2017-11-10T18:46:32.679Z,6.32
2017-11-10T18:52:36.921Z,6.44
2017-11-10T18:58:40.443Z,6.60
2017-11-10T19:04:43.919Z,6.65
2017-11-10T19:10:47.390Z,6.67
2017-11-10T19:16:50.880Z,6.68
2017-11-10T19:22:55.128Z,6.65
2017-11-10T19:28:58.629Z,6.63
2017-11-10T19:35:02.140Z,6.59
2017-11-10T19:41:05.634Z,6.47
2017-11-10T19:47:09.165Z,6.41
2017-11-10T19:53:12.708Z,6.44
2017-11-10T19:59:16.202Z,6.33
2017-11-10T20:05:19.680Z,6.30
2017-11-10T20:11:23.161Z,6.09
2017-11-10T20:17:26.678Z,5.13
2017-11-10T20:23:30.194Z,4.01
2017-11-10T20:29:33.661Z,3.98
2017-11-10T20:35:37.501Z,3.96
2017-11-10T20:41:41.026Z,3.82
2017-11-10T20:47:44.866Z,3.84
2017-11-10T20:53:48.349Z,3.93
2017-11-10T20:59:51.854Z,4.16
2017-11-10T21:05:55.336Z,4.35
2017-11-10T21:11:58.832Z,4.53
2017-11-10T21:18:03.086Z,4.60
2017-11-10T21:24:06.583Z,4.65
2017-11-10T21:30:10.076Z,4.84
2017-11-10T21:36:13.550Z,4.85
2017-11-10T21:42:17.486Z,4.67
2017-11-10T21:48:21.756Z,4.58
2017-11-10T21:54:25.248Z,4.59
2017-11-10T22:00:28.752Z,4.61
2017-11-10T22:06:32.803Z,4.60
2017-11-10T22:12:36.323Z,4.62
2017-11-10T22:18:39.800Z,4.56
2017-11-10T22:24:43.320Z,4.49
2017-11-10T22:30:47.909Z,4.45
2017-11-10T22:36:51.428Z,4.58
2017-11-10T22:42:54.922Z,4.44
2017-11-10T22:48:58.764Z,4.43
2017-11-10T22:55:02.263Z,4.33
2017-11-10T23:01:06.540Z,4.31
2017-11-10T23:07:10.019Z,4.28
2017-11-10T23:13:13.533Z,4.40
2017-11-10T23:19:17.011Z,4.53
2017-11-10T23:25:20.510Z,4.63
2017-11-10T23:31:23.991Z,4.76
2017-11-10T23:37:27.752Z,5.02
2017-11-10T23:43:31.309Z,5.19
2017-11-10T23:49:34.828Z,5.18
2017-11-10T23:55:39.079Z,5.30
